Time;durP1;ratioP1;P1;durP2;ratioP2;P2;SDS_P1;SDS_P2;PMS_P1;PMS_P2;Temp;Humidity;BMP_temperature;BMP_pressure;BME280_temperature;BME280_humidity;BME280_pressure;Samples;Min_cycle;Max_cycle;Signal;HPM_P1;HPM_P2
2023/03/04 00:00:14;;;;;;;26.08;9.13;;;;;;;;;;5052147;28;20021;-67
2023/03/04 00:02:39;;;;;;;25.42;9.00;;;;;;;;;;5053916;28;20493;-69
2023/03/04 00:05:05;;;;;;;24.00;10.77;;;;;;;;;;5055684;28;20025;-67
2023/03/04 00:07:31;;;;;;;25.10;8.45;;;;;;;;;;5055730;28;20025;-67
2023/03/04 00:09:56;;;;;;;29.90;7.78;;;;;;;;;;5055814;28;20520;-67
2023/03/04 00:12:22;;;;;;;32.97;11.70;;;;;;;;;;5055597;28;20537;-67
2023/03/04 00:14:47;;;;;;;17.85;7.10;;;;;;;;;;5055565;28;20028;-67
2023/03/04 00:17:13;;;;;;;25.35;8.05;;;;;;;;;;5055517;28;20028;-67
2023/03/04 00:19:38;;;;;;;28.73;8.65;;;;;;;;;;5055352;28;20106;-67
2023/03/04 00:22:04;;;;;;;23.70;7.43;;;;;;;;;;5055643;28;20025;-67
2023/03/04 00:24:30;;;;;;;15.63;6.18;;;;;;;;;;5055353;28;20068;-67
2023/03/04 00:26:55;;;;;;;18.40;6.40;;;;;;;;;;5055399;28;20033;-67
2023/03/04 00:29:21;;;;;;;24.60;6.22;;;;;;;;;;5055254;28;20025;-67
2023/03/04 00:31:46;;;;;;;16.58;6.18;;;;;;;;;;5055184;28;20024;-67
2023/03/04 00:34:12;;;;;;;21.67;5.78;;;;;;;;;;5054988;28;20129;-68
2023/03/04 00:36:37;;;;;;;20.77;5.70;;;;;;;;;;5055186;28;20033;-67
2023/03/04 00:39:03;;;;;;;25.58;5.65;;;;;;;;;;5055240;28;20036;-67
2023/03/04 00:41:28;;;;;;;21.98;4.75;;;;;;;;;;5055099;28;20104;-67
2023/03/04 00:43:54;;;;;;;15.90;6.38;;;;;;;;;;5055049;28;20470;-67
2023/03/04 00:46:19;;;;;;;16.60;5.30;;;;;;;;;;5054777;28;20075;-67
2023/03/04 00:48:44;;;;;;;16.27;4.95;;;;;;;;;;5054873;28;20112;-67
2023/03/04 00:51:10;;;;;;;17.92;5.05;;;;;;;;;;5054784;28;20021;-67
2023/03/04 00:53:35;;;;;;;19.58;4.20;;;;;;;;;;5047862;28;20024;-67
2023/03/04 00:56:01;;;;;;;17.17;4.30;;;;;;;;;;5052612;28;20053;-67
2023/03/04 00:58:26;;;;;;;16.52;5.60;;;;;;;;;;5054711;28;20031;-67
2023/03/04 01:00:52;;;;;;;9.32;3.92;;;;;;;;;;5054383;28;20121;-67
2023/03/04 01:03:17;;;;;;;20.60;4.38;;;;;;;;;;5054642;28;20044;-67
2023/03/04 01:05:43;;;;;;;12.50;3.38;;;;;;;;;;5054447;28;20033;-67
2023/03/04 01:08:09;;;;;;;19.60;3.45;;;;;;;;;;5054746;28;20025;-67
2023/03/04 01:10:34;;;;;;;14.30;3.90;;;;;;;;;;5054454;28;20078;-67
2023/03/04 01:13:00;;;;;;;20.77;4.50;;;;;;;;;;5054515;28;20463;-68
2023/03/04 01:15:25;;;;;;;21.42;4.63;;;;;;;;;;5054208;28;20033;-68
2023/03/04 01:17:51;;;;;;;16.95;4.22;;;;;;;;;;5054429;28;20036;-68
2023/03/04 01:20:17;;;;;;;11.35;3.15;;;;;;;;;;5054494;28;20025;-68
2023/03/04 01:22:42;;;;;;;11.02;3.53;;;;;;;;;;5054219;28;20052;-68
2023/03/04 01:25:08;;;;;;;20.00;4.13;;;;;;;;;;5054306;28;20104;-68
2023/03/04 01:27:34;;;;;;;16.23;4.28;;;;;;;;;;5054165;28;20028;-68
2023/03/04 01:29:59;;;;;;;19.90;3.20;;;;;;;;;;5053995;28;20021;-70
2023/03/04 01:32:25;;;;;;;14.00;4.15;;;;;;;;;;5053846;28;20032;-71
2023/03/04 01:34:50;;;;;;;19.52;4.10;;;;;;;;;;5053519;28;20098;-69
2023/03/04 01:37:16;;;;;;;10.55;2.97;;;;;;;;;;5053892;28;20023;-69
2023/03/04 01:39:41;;;;;;;11.45;3.03;;;;;;;;;;5053794;28;20386;-68
2023/03/04 01:42:17;;;;;;;16.17;3.92;;;;;;;;;;5053612;28;20408;-70
2023/03/04 01:44:43;;;;;;;15.15;4.55;;;;;;;;;;5052971;28;20073;-68
2023/03/04 01:47:09;;;;;;;16.38;3.67;;;;;;;;;;5053210;28;20028;-69
2023/03/04 01:49:35;;;;;;;20.52;3.55;;;;;;;;;;5053299;28;20025;-68
2023/03/04 01:52:00;;;;;;;15.13;3.72;;;;;;;;;;5053235;28;20070;-68
2023/03/04 01:54:25;;;;;;;15.35;3.42;;;;;;;;;;5052893;28;20087;-69
2023/03/04 01:56:51;;;;;;;15.38;3.67;;;;;;;;;;5053263;28;20025;-69
2023/03/04 01:59:23;;;;;;;8.95;2.75;;;;;;;;;;5052919;28;20070;-69
2023/03/04 02:01:53;;;;;;;12.32;3.10;;;;;;;;;;5053068;28;20104;-71
2023/03/04 02:04:27;;;;;;;;;;;;;;;;;;5054005;28;20059;-69
2023/03/04 02:06:53;;;;;;;9.57;2.75;;;;;;;;;;5052044;28;19952;-68
2023/03/04 02:09:19;;;;;;;15.55;3.60;;;;;;;;;;5053438;28;20231;-67
2023/03/04 02:11:46;;;;;;;24.83;4.13;;;;;;;;;;5053216;28;20025;-69
2023/03/04 02:14:12;;;;;;;16.60;3.80;;;;;;;;;;5052985;28;20458;-69
2023/03/04 02:16:38;;;;;;;24.45;3.70;;;;;;;;;;5053310;28;20029;-69
2023/03/04 02:19:25;;;;;;;9.32;3.78;;;;;;;;;;5053295;28;20025;-68
2023/03/04 02:21:51;;;;;;;15.95;4.32;;;;;;;;;;5053176;28;20029;-69
2023/03/04 02:24:32;;;;;;;17.13;4.13;;;;;;;;;;5051726;28;20096;-69
2023/03/04 02:26:58;;;;;;;18.17;3.55;;;;;;;;;;5053230;28;20059;-69
2023/03/04 02:29:24;;;;;;;17.00;3.33;;;;;;;;;;5052980;28;20032;-69
2023/03/04 02:31:51;;;;;;;12.65;3.53;;;;;;;;;;5053034;28;20029;-69
2023/03/04 02:34:19;;;;;;;9.93;2.28;;;;;;;;;;5052970;28;20073;-69
2023/03/04 02:36:46;;;;;;;12.98;2.42;;;;;;;;;;5051793;28;20359;-69
2023/03/04 02:39:28;;;;;;;12.35;2.60;;;;;;;;;;5052885;28;20029;-69
2023/03/04 02:41:54;;;;;;;19.38;3.28;;;;;;;;;;5052828;28;20021;-68
2023/03/04 02:44:23;;;;;;;14.32;3.30;;;;;;;;;;5052767;28;20485;-69
2023/03/04 02:46:49;;;;;;;13.10;3.35;;;;;;;;;;5052951;28;20033;-69
2023/03/04 02:49:15;;;;;;;16.75;2.70;;;;;;;;;;5052854;28;20025;-69
2023/03/04 02:51:41;;;;;;;13.38;2.97;;;;;;;;;;5052876;28;20520;-69
2023/03/04 02:54:17;;;;;;;13.13;2.83;;;;;;;;;;5052454;28;20028;-70
2023/03/04 02:56:57;;;;;;;16.50;2.97;;;;;;;;;;5052868;28;20075;-69
2023/03/04 02:59:23;;;;;;;15.95;3.40;;;;;;;;;;5052838;28;20078;-69
2023/03/04 03:01:48;;;;;;;14.57;3.20;;;;;;;;;;5052643;28;20033;-69
2023/03/04 03:04:14;;;;;;;11.30;2.80;;;;;;;;;;5052713;28;20079;-69
2023/03/04 03:06:40;;;;;;;11.23;2.40;;;;;;;;;;5052598;28;20108;-69
2023/03/04 03:09:06;;;;;;;19.33;3.30;;;;;;;;;;5052668;28;20052;-69
2023/03/04 03:11:32;;;;;;;13.32;2.60;;;;;;;;;;5052392;28;20029;-70
2023/03/04 03:13:58;;;;;;;6.55;2.28;;;;;;;;;;5052546;28;20078;-69
2023/03/04 03:16:23;;;;;;;19.90;3.97;;;;;;;;;;5052543;28;20025;-68
2023/03/04 03:18:49;;;;;;;15.77;3.47;;;;;;;;;;5052669;28;20044;-69
2023/03/04 03:21:14;;;;;;;7.30;2.65;;;;;;;;;;5052568;28;20036;-69
2023/03/04 03:23:40;;;;;;;16.58;4.40;;;;;;;;;;5052500;28;20400;-69
2023/03/04 03:26:05;;;;;;;9.63;2.67;;;;;;;;;;5052348;28;20024;-69
2023/03/04 03:28:30;;;;;;;10.55;2.67;;;;;;;;;;5052463;28;20029;-69
2023/03/04 03:30:58;;;;;;;15.88;2.97;;;;;;;;;;5052445;28;20029;-69
2023/03/04 03:33:23;;;;;;;10.15;2.85;;;;;;;;;;5051324;28;20032;-69
2023/03/04 03:35:48;;;;;;;15.43;2.30;;;;;;;;;;5052052;28;20115;-69
2023/03/04 03:38:14;;;;;;;10.95;2.40;;;;;;;;;;5055247;28;20032;-69
2023/03/04 03:40:39;;;;;;;17.10;5.03;;;;;;;;;;5056028;28;20382;-69
2023/03/04 03:43:05;;;;;;;9.20;3.10;;;;;;;;;;5056222;28;20037;-69
2023/03/04 03:45:30;;;;;;;10.45;3.50;;;;;;;;;;5056273;28;20025;-69
2023/03/04 03:47:56;;;;;;;16.02;4.13;;;;;;;;;;5056137;28;20029;-69
2023/03/04 03:50:21;;;;;;;13.25;3.17;;;;;;;;;;5056071;28;20025;-69
2023/03/04 03:52:46;;;;;;;20.77;3.58;;;;;;;;;;5055997;28;20090;-69
2023/03/04 03:55:12;;;;;;;22.13;4.63;;;;;;;;;;5055438;28;20178;-69
2023/03/04 03:57:37;;;;;;;13.50;4.55;;;;;;;;;;5055991;28;20074;-69
2023/03/04 04:00:05;;;;;;;18.40;3.38;;;;;;;;;;5055908;28;20021;-69
2023/03/04 04:02:30;;;;;;;12.45;3.53;;;;;;;;;;5055798;28;20113;-69
2023/03/04 04:04:56;;;;;;;14.75;3.35;;;;;;;;;;5055919;28;20100;-69
2023/03/04 04:07:21;;;;;;;17.55;4.80;;;;;;;;;;5055635;28;20033;-69
2023/03/04 04:09:47;;;;;;;13.90;3.20;;;;;;;;;;5055473;28;20021;-69
2023/03/04 04:12:15;;;;;;;12.75;2.97;;;;;;;;;;5055627;28;20107;-69
2023/03/04 04:14:41;;;;;;;15.57;3.22;;;;;;;;;;5055472;28;20021;-69
2023/03/04 04:17:07;;;;;;;12.88;2.75;;;;;;;;;;5055412;28;20067;-70
2023/03/04 04:19:32;;;;;;;9.63;2.47;;;;;;;;;;5055583;28;20041;-69
2023/03/04 04:21:58;;;;;;;10.43;3.03;;;;;;;;;;5055493;28;20060;-69
2023/03/04 04:24:23;;;;;;;9.27;2.60;;;;;;;;;;5055243;28;20132;-69
2023/03/04 04:26:49;;;;;;;13.60;2.67;;;;;;;;;;5055403;28;20021;-69
2023/03/04 04:29:15;;;;;;;9.57;2.28;;;;;;;;;;5055409;28;20485;-69
2023/03/04 04:31:40;;;;;;;13.30;3.00;;;;;;;;;;5055251;28;20044;-69
2023/03/04 04:34:06;;;;;;;12.18;3.00;;;;;;;;;;5055276;28;20035;-69
2023/03/04 04:36:31;;;;;;;11.23;2.63;;;;;;;;;;5054952;28;20032;-71
2023/03/04 04:38:56;;;;;;;15.63;2.97;;;;;;;;;;5054896;28;20025;-69
2023/03/04 04:41:26;;;;;;;7.57;2.95;;;;;;;;;;5055037;28;20029;-69
2023/03/04 04:43:51;;;;;;;8.43;2.22;;;;;;;;;;5055071;28;20048;-69
2023/03/04 04:46:17;;;;;;;14.82;2.38;;;;;;;;;;5055065;28;20494;-69
2023/03/04 04:48:43;;;;;;;8.90;2.22;;;;;;;;;;5054623;28;20032;-69
2023/03/04 04:51:09;;;;;;;13.35;2.10;;;;;;;;;;5054896;28;20501;-69
2023/03/04 04:53:34;;;;;;;7.80;2.22;;;;;;;;;;5054809;28;20027;-68
2023/03/04 04:56:06;;;;;;;7.38;1.85;;;;;;;;;;5054424;28;20053;-69
2023/03/04 04:58:32;;;;;;;11.73;2.83;;;;;;;;;;5054705;28;20056;-69
2023/03/04 05:00:57;;;;;;;9.20;2.70;;;;;;;;;;5054545;28;20029;-69
2023/03/04 05:03:22;;;;;;;6.15;2.13;;;;;;;;;;5054616;28;20025;-69
2023/03/04 05:05:48;;;;;;;6.05;2.08;;;;;;;;;;5054458;28;20047;-69
2023/03/04 05:08:13;;;;;;;9.32;1.85;;;;;;;;;;5054461;28;20025;-69
2023/03/04 05:10:39;;;;;;;13.18;2.10;;;;;;;;;;5054567;28;20032;-70
2023/03/04 05:13:04;;;;;;;8.93;1.70;;;;;;;;;;5054496;28;20029;-69
2023/03/04 05:15:29;;;;;;;13.77;2.63;;;;;;;;;;5054497;28;20029;-69
2023/03/04 05:17:56;;;;;;;10.23;2.33;;;;;;;;;;5054413;28;20036;-69
2023/03/04 05:20:22;;;;;;;6.18;1.52;;;;;;;;;;5053152;28;20044;-68
2023/03/04 05:22:48;;;;;;;7.78;1.90;;;;;;;;;;5054262;28;20032;-69
2023/03/04 05:25:13;;;;;;;7.50;1.98;;;;;;;;;;5054246;28;20021;-69
2023/03/04 05:27:39;;;;;;;8.13;2.00;;;;;;;;;;5054328;28;20025;-69
2023/03/04 05:30:05;;;;;;;5.90;1.95;;;;;;;;;;5054229;28;20460;-69
2023/03/04 05:32:30;;;;;;;11.02;2.30;;;;;;;;;;5054252;28;20029;-69
2023/03/04 05:34:56;;;;;;;6.28;1.92;;;;;;;;;;5053945;28;20462;-69
2023/03/04 05:37:21;;;;;;;8.25;2.15;;;;;;;;;;5053799;28;20021;-68
2023/03/04 05:39:46;;;;;;;7.93;2.28;;;;;;;;;;5052685;28;20024;-69
2023/03/04 05:42:12;;;;;;;6.13;2.30;;;;;;;;;;5053949;28;20032;-70
2023/03/04 05:44:37;;;;;;;5.00;1.80;;;;;;;;;;5054022;28;20036;-69
2023/03/04 05:47:03;;;;;;;6.78;1.80;;;;;;;;;;5053852;28;20025;-68
2023/03/04 05:49:28;;;;;;;4.53;1.88;;;;;;;;;;5053833;28;20079;-69
2023/03/04 05:51:53;;;;;;;10.60;2.40;;;;;;;;;;5053266;28;20128;-69
2023/03/04 05:54:20;;;;;;;7.15;1.83;;;;;;;;;;5053363;28;20177;-69
2023/03/04 05:56:45;;;;;;;8.65;1.98;;;;;;;;;;5053752;28;20103;-69
2023/03/04 05:59:11;;;;;;;5.15;2.00;;;;;;;;;;5053223;28;20108;-69
2023/03/04 06:01:36;;;;;;;5.90;2.10;;;;;;;;;;5053240;28;20071;-68
2023/03/04 06:04:02;;;;;;;4.97;2.25;;;;;;;;;;5053657;28;20036;-68
2023/03/04 06:06:27;;;;;;;6.30;2.10;;;;;;;;;;5053161;28;20031;-69
2023/03/04 06:08:53;;;;;;;5.82;1.98;;;;;;;;;;5053538;28;20082;-69
2023/03/04 06:11:18;;;;;;;9.10;2.35;;;;;;;;;;5053150;28;20451;-69
2023/03/04 06:13:44;;;;;;;9.15;2.20;;;;;;;;;;5053169;28;20052;-69
2023/03/04 06:16:09;;;;;;;8.98;2.30;;;;;;;;;;5052841;28;20043;-69
2023/03/04 06:18:34;;;;;;;9.32;2.00;;;;;;;;;;5053189;28;20025;-69
2023/03/04 06:21:02;;;;;;;7.97;2.17;;;;;;;;;;5052872;28;20017;-69
2023/03/04 06:23:28;;;;;;;4.30;1.88;;;;;;;;;;5053281;28;20151;-69
2023/03/04 06:25:55;;;;;;;8.20;1.75;;;;;;;;;;5053074;28;20427;-68
2023/03/04 06:28:21;;;;;;;8.18;1.90;;;;;;;;;;5053170;28;20079;-69
2023/03/04 06:30:47;;;;;;;9.70;2.17;;;;;;;;;;5053102;28;20103;-69
2023/03/04 06:33:12;;;;;;;10.98;2.45;;;;;;;;;;5053101;28;20497;-69
2023/03/04 06:35:38;;;;;;;9.82;2.42;;;;;;;;;;5052465;28;20025;-69
2023/03/04 06:38:03;;;;;;;8.38;2.03;;;;;;;;;;5052977;28;20032;-69
2023/03/04 06:40:28;;;;;;;8.10;2.70;;;;;;;;;;5052935;28;20386;-69
2023/03/04 06:42:54;;;;;;;8.20;2.20;;;;;;;;;;5052957;28;20025;-69
2023/03/04 06:45:19;;;;;;;10.38;2.10;;;;;;;;;;5052894;28;20028;-69
2023/03/04 06:47:45;;;;;;;8.23;2.20;;;;;;;;;;5052846;28;20036;-66
2023/03/04 06:50:12;;;;;;;4.72;1.90;;;;;;;;;;5052545;28;20021;-68
2023/03/04 06:52:38;;;;;;;9.80;2.28;;;;;;;;;;5052769;28;20053;-67
2023/03/04 06:55:04;;;;;;;5.38;1.77;;;;;;;;;;5052437;28;20454;-68
2023/03/04 06:57:30;;;;;;;8.30;2.13;;;;;;;;;;5052607;28;20021;-67
2023/03/04 06:59:55;;;;;;;7.43;2.05;;;;;;;;;;5052605;28;20394;-67
2023/03/04 07:02:21;;;;;;;6.38;2.05;;;;;;;;;;5052722;28;20085;-68
2023/03/04 07:04:46;;;;;;;9.07;1.90;;;;;;;;;;5052614;28;20492;-68
2023/03/04 07:07:12;;;;;;;9.57;2.03;;;;;;;;;;5052508;28;20033;-67
2023/03/04 07:09:37;;;;;;;10.15;2.00;;;;;;;;;;5052646;28;20075;-68
2023/03/04 07:12:03;;;;;;;12.65;2.30;;;;;;;;;;5055259;28;20025;-67
2023/03/04 07:14:28;;;;;;;14.30;2.40;;;;;;;;;;5056673;28;20044;-67
2023/03/04 07:16:54;;;;;;;8.05;2.30;;;;;;;;;;5056849;28;20132;-68
2023/03/04 07:19:21;;;;;;;10.90;2.33;;;;;;;;;;5056477;28;20049;-68
2023/03/04 07:21:46;;;;;;;5.75;1.90;;;;;;;;;;5056495;28;20032;-68
2023/03/04 07:24:11;;;;;;;6.68;2.42;;;;;;;;;;5056516;28;20031;-67
2023/03/04 07:26:37;;;;;;;10.15;3.17;;;;;;;;;;5056481;28;20064;-67
2023/03/04 07:29:03;;;;;;;8.85;3.13;;;;;;;;;;5056451;28;20028;-68
2023/03/04 07:31:32;;;;;;;6.90;2.80;;;;;;;;;;5056461;28;20355;-68
2023/03/04 07:34:00;;;;;;;24.30;5.15;;;;;;;;;;5056195;28;20478;-68
2023/03/04 07:36:26;;;;;;;5.32;1.80;;;;;;;;;;5056256;28;20037;-68
2023/03/04 07:38:53;;;;;;;8.73;1.90;;;;;;;;;;5054978;28;20033;-68
2023/03/04 07:41:19;;;;;;;7.13;2.10;;;;;;;;;;5056055;28;20029;-68
2023/03/04 07:43:45;;;;;;;8.77;2.08;;;;;;;;;;5054859;28;20037;-67
2023/03/04 07:46:11;;;;;;;9.52;2.10;;;;;;;;;;5056137;28;20025;-67
2023/03/04 07:48:37;;;;;;;5.03;1.80;;;;;;;;;;5055847;28;20029;-68
2023/03/04 07:51:09;;;;;;;11.35;2.30;;;;;;;;;;5055926;28;20438;-67
2023/03/04 07:53:36;;;;;;;8.23;2.40;;;;;;;;;;5055477;28;20029;-69
2023/03/04 07:56:02;;;;;;;4.82;1.60;;;;;;;;;;5055420;28;20057;-68
2023/03/04 07:58:27;;;;;;;8.75;2.00;;;;;;;;;;5055919;28;20025;-67
2023/03/04 08:00:53;;;;;;;8.18;2.72;;;;;;;;;;5055770;28;20109;-68
2023/03/04 08:03:18;;;;;;;9.93;3.00;;;;;;;;;;5055713;28;20045;-67
2023/03/04 08:05:44;;;;;;;12.45;2.38;;;;;;;;;;5055672;28;20033;-68
2023/03/04 08:08:09;;;;;;;8.20;2.22;;;;;;;;;;5055815;28;20021;-68
2023/03/04 08:10:35;;;;;;;4.95;1.75;;;;;;;;;;5055259;28;20029;-68
2023/03/04 08:13:00;;;;;;;8.35;2.45;;;;;;;;;;5055575;28;20027;-67
2023/03/04 08:15:26;;;;;;;12.57;2.17;;;;;;;;;;5055677;28;20033;-67
2023/03/04 08:17:52;;;;;;;9.65;2.17;;;;;;;;;;5054871;28;20496;-67
2023/03/04 08:20:18;;;;;;;5.00;1.58;;;;;;;;;;5055453;28;20044;-67
2023/03/04 08:22:43;;;;;;;9.10;2.13;;;;;;;;;;5054666;28;20127;-69
2023/03/04 08:25:09;;;;;;;12.40;3.28;;;;;;;;;;5055272;28;20099;-68
2023/03/04 08:27:36;;;;;;;6.85;1.92;;;;;;;;;;5055473;28;20055;-68
2023/03/04 08:30:03;;;;;;;9.52;2.40;;;;;;;;;;5055114;28;20525;-68
2023/03/04 08:32:28;;;;;;;7.82;2.50;;;;;;;;;;5055021;28;20382;-67
2023/03/04 08:34:55;;;;;;;10.43;2.75;;;;;;;;;;5055150;28;20036;-68
2023/03/04 08:37:20;;;;;;;9.30;2.72;;;;;;;;;;5054886;28;20029;-69
2023/03/04 08:39:45;;;;;;;9.80;2.33;;;;;;;;;;5055113;28;20080;-69
2023/03/04 08:42:11;;;;;;;10.05;2.88;;;;;;;;;;5055226;28;20115;-69
2023/03/04 08:44:36;;;;;;;13.90;3.05;;;;;;;;;;5055056;28;20381;-68
2023/03/04 08:47:02;;;;;;;13.60;2.42;;;;;;;;;;5054802;28;20104;-68
2023/03/04 08:49:27;;;;;;;9.30;1.67;;;;;;;;;;5054904;28;20048;-69
2023/03/04 08:51:52;;;;;;;10.73;1.98;;;;;;;;;;5054854;28;20063;-69
2023/03/04 08:54:18;;;;;;;7.43;2.42;;;;;;;;;;5054503;28;20111;-70
2023/03/04 08:56:43;;;;;;;6.88;1.83;;;;;;;;;;5055009;28;20032;-69
2023/03/04 08:59:09;;;;;;;10.68;2.10;;;;;;;;;;5054849;28;20142;-69
2023/03/04 09:01:34;;;;;;;14.57;2.65;;;;;;;;;;5054015;28;20050;-69
2023/03/04 09:04:00;;;;;;;7.28;1.42;;;;;;;;;;5054624;28;20040;-69
2023/03/04 09:06:25;;;;;;;11.85;2.45;;;;;;;;;;5054514;28;20025;-68
2023/03/04 09:08:51;;;;;;;6.93;1.77;;;;;;;;;;5054789;28;20021;-70
2023/03/04 09:11:16;;;;;;;13.32;2.90;;;;;;;;;;5054263;28;20359;-69
2023/03/04 09:13:42;;;;;;;10.00;2.20;;;;;;;;;;5054092;28;20025;-69
2023/03/04 09:16:09;;;;;;;4.63;1.92;;;;;;;;;;5053794;28;20025;-69
2023/03/04 09:18:35;;;;;;;11.80;2.67;;;;;;;;;;5053875;28;20108;-69
2023/03/04 09:21:00;;;;;;;9.98;2.38;;;;;;;;;;5053958;28;20048;-69
2023/03/04 09:23:26;;;;;;;8.50;2.53;;;;;;;;;;5053908;28;20023;-68
2023/03/04 09:25:51;;;;;;;9.75;2.60;;;;;;;;;;5053831;28;20021;-67
2023/03/04 09:28:18;;;;;;;14.43;2.72;;;;;;;;;;5051132;28;20100;-68
2023/03/04 09:30:44;;;;;;;13.40;3.55;;;;;;;;;;5053976;28;20082;-67
2023/03/04 09:33:10;;;;;;;6.90;2.13;;;;;;;;;;5053951;28;20028;-71
2023/03/04 09:35:36;;;;;;;12.25;2.30;;;;;;;;;;5052839;28;20040;-69
2023/03/04 09:38:01;;;;;;;6.43;1.75;;;;;;;;;;5054493;28;20029;-65
2023/03/04 09:40:31;;;;;;;7.68;1.80;;;;;;;;;;5053889;28;20394;-67
2023/03/04 09:43:04;;;;;;;6.68;2.08;;;;;;;;;;5053303;28;20029;-67
2023/03/04 09:45:40;;;;;;;8.60;1.90;;;;;;;;;;5053544;28;20036;-68
2023/03/04 09:48:08;;;;;;;9.98;2.20;;;;;;;;;;5053918;28;20112;-67
2023/03/04 09:50:41;;;;;;;11.38;2.70;;;;;;;;;;5053739;28;20052;-71
2023/03/04 09:53:24;;;;;;;10.80;2.60;;;;;;;;;;5053610;28;20082;-70
2023/03/04 09:55:51;;;;;;;10.43;2.85;;;;;;;;;;5053275;28;20052;-67
2023/03/04 09:58:44;;;;;;;10.80;2.80;;;;;;;;;;5053508;28;20025;-67
2023/03/04 10:01:25;;;;;;;7.88;2.38;;;;;;;;;;5053476;28;20024;-72
2023/03/04 10:03:57;;;;;;;9.70;2.30;;;;;;;;;;5053318;28;20020;-67
2023/03/04 10:06:23;;;;;;;10.52;2.40;;;;;;;;;;5053177;28;20497;-68
2023/03/04 10:09:11;;;;;;;12.38;2.78;;;;;;;;;;5051471;28;20093;-67
2023/03/04 10:11:47;;;;;;;13.00;2.65;;;;;;;;;;5033384;28;20040;-70
2023/03/04 10:14:21;;;;;;;15.63;2.38;;;;;;;;;;5033176;28;20090;-69
2023/03/04 10:17:05;;;;;;;10.95;2.10;;;;;;;;;;5033166;28;20037;-69
2023/03/04 10:19:49;;;;;;;17.27;2.60;;;;;;;;;;5033205;28;20033;-68
2023/03/04 10:22:46;;;;;;;9.38;2.22;;;;;;;;;;5033484;28;20065;-68
2023/03/04 10:25:19;;;;;;;10.90;2.63;;;;;;;;;;5032958;28;20037;-69
2023/03/04 10:27:49;;;;;;;11.73;2.03;;;;;;;;;;5032763;28;20134;-67
2023/03/04 10:30:19;;;;;;;7.22;2.30;;;;;;;;;;5036926;28;20025;-64
2023/03/04 10:32:46;;;;;;;;;;;;;;;;;;5049201;28;20033;-66
2023/03/04 10:35:12;;;;;;;14.45;2.67;;;;;;;;;;5036254;28;19917;-66
2023/03/04 10:37:45;;;;;;;13.88;2.03;;;;;;;;;;5032984;28;20037;-68
2023/03/04 10:40:23;;;;;;;10.13;2.03;;;;;;;;;;5032832;28;20017;-67
2023/03/04 10:42:49;;;;;;;10.90;3.00;;;;;;;;;;5032486;28;20097;-68
2023/03/04 10:45:24;;;;;;;8.77;2.20;;;;;;;;;;5052452;28;20036;-65
2023/03/04 10:47:54;;;;;;;8.27;2.05;;;;;;;;;;5052780;28;20440;-66
2023/03/04 10:50:26;;;;;;;12.23;2.30;;;;;;;;;;5052779;28;20381;-66
2023/03/04 10:52:54;;;;;;;15.13;3.33;;;;;;;;;;5052503;28;20036;-66
2023/03/04 10:55:44;;;;;;;15.63;3.20;;;;;;;;;;5052028;28;20060;-66
2023/03/04 10:58:17;;;;;;;17.15;3.25;;;;;;;;;;5049927;28;20450;-65
2023/03/04 11:00:43;;;;;;;17.10;4.03;;;;;;;;;;5052543;28;20413;-66
2023/03/04 11:03:27;;;;;;;13.02;3.90;;;;;;;;;;5052343;28;20029;-66
2023/03/04 11:06:04;;;;;;;15.27;3.05;;;;;;;;;;5052258;28;20020;-66
2023/03/04 11:08:30;;;;;;;13.20;2.88;;;;;;;;;;5052329;28;20025;-66
2023/03/04 11:10:55;;;;;;;14.02;2.95;;;;;;;;;;5052231;28;20031;-67
2023/03/04 11:13:23;;;;;;;13.18;3.67;;;;;;;;;;5052593;28;20033;-66
2023/03/04 11:16:20;;;;;;;13.30;3.63;;;;;;;;;;5052231;28;20488;-66
2023/03/04 11:18:51;;;;;;;15.63;3.15;;;;;;;;;;5052528;28;20026;-65
2023/03/04 11:21:22;;;;;;;12.88;2.83;;;;;;;;;;5052298;28;20143;-67
2023/03/04 11:24:03;;;;;;;12.20;2.67;;;;;;;;;;5052263;28;20382;-66
2023/03/04 11:26:41;;;;;;;11.80;2.75;;;;;;;;;;5051960;28;20086;-67
2023/03/04 11:29:30;;;;;;;11.10;2.63;;;;;;;;;;5050933;28;20590;-66
2023/03/04 11:31:59;;;;;;;7.68;2.63;;;;;;;;;;5048736;28;20049;-65
2023/03/04 11:34:36;;;;;;;10.32;2.50;;;;;;;;;;5052402;28;20025;-66
2023/03/04 11:37:09;;;;;;;13.77;2.53;;;;;;;;;;5050843;28;20028;-66
2023/03/04 11:39:43;;;;;;;9.82;2.00;;;;;;;;;;5052082;28;20033;-66
2023/03/04 11:42:33;;;;;;;13.63;2.58;;;;;;;;;;5052202;28;20031;-66
2023/03/04 11:44:58;;;;;;;12.57;2.20;;;;;;;;;;5051884;28;20100;-65
2023/03/04 11:47:42;;;;;;;6.25;2.38;;;;;;;;;;5050945;28;20120;-67
2023/03/04 11:50:22;;;;;;;14.88;2.13;;;;;;;;;;5052219;28;20078;-67
2023/03/04 11:53:13;;;;;;;11.82;3.17;;;;;;;;;;5052245;28;20032;-66
2023/03/04 11:55:55;;;;;;;6.43;1.83;;;;;;;;;;5050866;28;20055;-67
2023/03/04 11:58:58;;;;;;;4.35;1.55;;;;;;;;;;5053474;28;20033;-67
2023/03/04 12:01:35;;;;;;;8.65;1.90;;;;;;;;;;5014065;28;20038;-67
2023/03/04 12:04:23;;;;;;;7.25;1.90;;;;;;;;;;5013905;28;20092;-67
2023/03/04 12:07:04;;;;;;;4.55;1.70;;;;;;;;;;5013624;28;20487;-67
2023/03/04 12:09:38;;;;;;;;;;;;;;;;;;5014215;28;20038;-67
2023/03/04 12:12:22;;;;;;;5.70;1.67;;;;;;;;;;5013965;28;19945;-67
2023/03/04 12:15:07;;;;;;;6.25;1.77;;;;;;;;;;5013802;28;20176;-67
2023/03/04 12:17:41;;;;;;;5.10;1.58;;;;;;;;;;5013628;28;20037;-67
2023/03/04 12:20:20;;;;;;;5.57;1.48;;;;;;;;;;5013690;28;20030;-68
2023/03/04 12:22:50;;;;;;;4.97;2.00;;;;;;;;;;5013463;28;20113;-68
2023/03/04 12:25:26;;;;;;;5.57;2.53;;;;;;;;;;5013605;28;20529;-68
2023/03/04 12:27:54;;;;;;;6.60;2.70;;;;;;;;;;5013463;28;20573;-68
2023/03/04 12:30:36;;;;;;;10.48;3.05;;;;;;;;;;5013317;28;20531;-67
2023/03/04 12:33:28;;;;;;;5.68;2.20;;;;;;;;;;5013431;28;20036;-67
2023/03/04 12:35:54;;;;;;;6.43;2.78;;;;;;;;;;5013370;28;20061;-67
2023/03/04 12:38:48;;;;;;;5.80;1.80;;;;;;;;;;5025207;28;20371;-68
2023/03/04 12:41:33;;;;;;;4.30;1.95;;;;;;;;;;5034906;28;20025;-68
2023/03/04 12:44:18;;;;;;;5.88;1.92;;;;;;;;;;5035161;28;20029;-67
2023/03/04 12:46:59;;;;;;;8.70;3.42;;;;;;;;;;5035069;28;20060;-67
2023/03/04 12:49:57;;;;;;;15.77;2.60;;;;;;;;;;5034949;28;20032;-67
2023/03/04 12:52:28;;;;;;;6.38;2.20;;;;;;;;;;4993036;28;20162;-66
2023/03/04 12:55:02;;;;;;;6.43;2.30;;;;;;;;;;5000923;28;20049;-66
2023/03/04 12:57:32;;;;;;;8.70;3.17;;;;;;;;;;5012975;28;20076;-66
2023/03/04 13:00:30;;;;;;;6.25;2.10;;;;;;;;;;5012707;28;20033;-66
2023/03/04 13:03:07;;;;;;;8.02;1.90;;;;;;;;;;5012531;28;20049;-67
2023/03/04 13:05:56;;;;;;;5.95;1.75;;;;;;;;;;5012736;28;20040;-66
2023/03/04 13:08:53;;;;;;;58.10;19.83;;;;;;;;;;5012378;28;20049;-67
2023/03/04 13:11:27;;;;;;;7.95;3.30;;;;;;;;;;4999974;28;20038;-67
2023/03/04 13:14:06;;;;;;;4.50;2.03;;;;;;;;;;5012648;28;20483;-66
2023/03/04 13:16:38;;;;;;;8.23;3.88;;;;;;;;;;5012622;28;20038;-68
2023/03/04 13:19:42;;;;;;;6.15;2.10;;;;;;;;;;5012492;28;20395;-67
2023/03/04 13:22:33;;;;;;;2.78;1.05;;;;;;;;;;5012484;28;20076;-69
2023/03/04 13:25:21;;;;;;;3.53;1.25;;;;;;;;;;5026074;28;20035;-68
2023/03/04 13:28:06;;;;;;;2.80;1.60;;;;;;;;;;5020738;28;20528;-68
2023/03/04 13:30:31;;;;;;;3.38;1.40;;;;;;;;;;5072444;28;20383;-67
2023/03/04 13:33:17;;;;;;;4.32;1.40;;;;;;;;;;5058201;28;20017;-68
2023/03/04 13:35:48;;;;;;;6.03;2.05;;;;;;;;;;5019360;28;20049;-68
2023/03/04 13:38:35;;;;;;;5.20;2.05;;;;;;;;;;5016131;28;20046;-67
2023/03/04 13:41:03;;;;;;;3.70;1.50;;;;;;;;;;5016875;28;20057;-66
2023/03/04 13:43:48;;;;;;;7.78;3.28;;;;;;;;;;5005330;28;20053;-68
2023/03/04 13:46:16;;;;;;;7.15;2.42;;;;;;;;;;5026738;28;20037;-67
2023/03/04 13:48:48;;;;;;;4.65;1.65;;;;;;;;;;5014429;28;20022;-67
2023/03/04 13:51:15;;;;;;;4.13;1.10;;;;;;;;;;5023173;28;20033;-67
2023/03/04 13:54:13;;;;;;;2.38;1.33;;;;;;;;;;5021992;28;20487;-67
2023/03/04 13:56:45;;;;;;;3.35;1.15;;;;;;;;;;4987009;28;20098;-66
2023/03/04 13:59:18;;;;;;;5.57;1.50;;;;;;;;;;4978636;28;20048;-70
2023/03/04 14:02:10;;;;;;;9.82;1.55;;;;;;;;;;4980491;28;20151;-69
2023/03/04 14:04:38;;;;;;;5.15;1.30;;;;;;;;;;4987764;28;20483;-66
2023/03/04 14:07:31;;;;;;;3.63;1.52;;;;;;;;;;4966706;28;20484;-66
2023/03/04 14:10:09;;;;;;;9.85;3.20;;;;;;;;;;4964720;28;20477;-67
2023/03/04 14:12:39;;;;;;;5.85;1.50;;;;;;;;;;4974728;28;20026;-67
2023/03/04 14:15:21;;;;;;;8.32;4.07;;;;;;;;;;4991007;28;20049;-68
2023/03/04 14:17:50;;;;;;;5.45;1.75;;;;;;;;;;4991054;28;20034;-67
2023/03/04 14:20:35;;;;;;;5.60;2.95;;;;;;;;;;4990591;28;20178;-67
2023/03/04 14:23:04;;;;;;;12.32;2.25;;;;;;;;;;4991038;28;20034;-67
2023/03/04 14:25:34;;;;;;;21.88;3.45;;;;;;;;;;4988317;28;20471;-67
2023/03/04 14:28:12;;;;;;;16.60;2.78;;;;;;;;;;4991090;28;20492;-68
2023/03/04 14:30:40;;;;;;;23.13;1.95;;;;;;;;;;4990201;28;20030;-67
2023/03/04 14:33:09;;;;;;;2.53;1.35;;;;;;;;;;5020778;28;20485;-67
2023/03/04 14:35:35;;;;;;;5.45;1.30;;;;;;;;;;5062371;28;20509;-65
2023/03/04 14:38:07;;;;;;;6.45;2.15;;;;;;;;;;5051588;28;20063;-65
2023/03/04 14:40:39;;;;;;;4.68;1.75;;;;;;;;;;5052075;28;20451;-66
2023/03/04 14:43:18;;;;;;;10.70;1.95;;;;;;;;;;5051817;28;20025;-66
2023/03/04 14:45:48;;;;;;;6.20;1.50;;;;;;;;;;5051834;28;20028;-65
2023/03/04 14:48:33;;;;;;;4.00;1.90;;;;;;;;;;5053177;28;20029;-68
2023/03/04 14:51:00;;;;;;;5.25;1.90;;;;;;;;;;5038022;28;20025;-66
2023/03/04 14:53:28;;;;;;;11.48;2.08;;;;;;;;;;5052019;28;20553;-67